Latest Weather Observations for Bourke

IDN60801

Issued at 11:35 pm EST Tuesday 2 September 2014 (issued every 30 minutes, with the page automatically refreshed every 10 minutes)

About weather observations | Map of weather stations | Latest weather observations for NSW | Other Formats
Station Details ID: 048245 Name: BOURKE AIRPORT AWS Lat: -30.04 Lon: 145.95 Height: 107.3 m
Data from the previous 72 hours. | See also: Recent months at Bourke
Date/Time
EST
Temp
°C
App
Temp
°C
Dew
Point
Rel
Hum
%
Delta-T
°C
Wind Press
QNH
hPa
Press
MSL
hPa
Rain
since 9 am
mm
Dir
 
Spd
km/h
Gust
km/h
Spd
kts
Gust
kts
02/11:30pm 9.3 4.5 2.6 63 2.8 WSW 17 24 9 13 1021.3 - 0.6
02/11:00pm 9.5 5.1 2.6 62 2.9 WSW 15 24 8 13 1021.2 1021.0 0.6
02/10:30pm 10.1 5.7 2.7 60 3.2 WSW 15 20 8 11 1021.2 - 0.6
02/10:00pm 10.4 6.0 2.7 59 3.3 WSW 15 20 8 11 1021.3 1021.1 0.6
02/09:30pm 10.8 6.8 2.9 58 3.4 WSW 13 20 7 11 1021.3 - 0.6
02/09:00pm 11.0 7.3 2.3 55 3.7 WSW 11 17 6 9 1021.1 1020.9 0.6
02/08:30pm 11.3 7.2 2.3 54 3.9 WSW 13 17 7 9 1020.9 - 0.6
02/08:00pm 12.0 8.3 2.2 51 4.2 SW 11 17 6 9 1020.5 1020.3 0.6
02/07:30pm 12.3 8.6 2.2 50 4.4 WSW 11 17 6 9 1020.2 - 0.6
02/07:00pm 13.6 8.7 1.9 45 5.1 WSW 17 22 9 12 1019.6 1019.4 0.6
02/06:30pm 14.5 9.6 2.1 43 5.5 WSW 17 24 9 13 1019.1 - 0.6
02/06:00pm 15.0 9.6 1.2 39 6.0 WSW 19 26 10 14 1018.7 1018.5 0.6
02/05:30pm 16.1 10.2 1.4 37 6.5 SW 22 32 12 17 1018.3 - 0.6
02/05:00pm 16.2 10.8 2.6 40 6.2 WSW 20 28 11 15 1018.0 1017.8 0.6
02/04:30pm 17.3 11.4 1.7 35 7.0 SW 22 35 12 19 1017.7 - 0.6
02/04:00pm 16.3 10.1 2.3 39 6.3 SW 24 39 13 21 1017.6 1017.4 0.6
02/03:30pm 16.5 10.3 2.2 38 6.4 SW 24 37 13 20 1017.5 - 0.6
02/03:00pm 17.3 11.8 1.7 35 7.0 SW 20 33 11 18 1017.4 1017.2 0.6
02/02:30pm 15.8 8.3 3.3 43 5.7 SSW 32 46 17 25 1017.5 - 0.6
02/02:27pm 16.2 9.5 3.6 43 5.8 SSW 28 46 15 25 1017.5 - 0.6
02/02:00pm 15.7 10.0 5.0 49 5.1 SSW 24 39 13 21 1017.6 1017.4 0.6
02/01:36pm 12.8 6.6 7.7 71 2.5 SSW 30 48 16 26 1017.8 - 0.6
02/01:30pm 12.3 5.1 6.1 66 2.9 SSW 33 50 18 27 1018.1 - 0.4
02/01:25pm 15.3 8.5 3.1 44 5.6 SSW 28 50 15 27 1017.7 - 0.0
02/01:00pm 17.7 11.1 2.1 35 7.1 SW 26 39 14 21 1017.8 1017.6 0.0
02/12:30pm 16.5 10.4 2.5 39 6.4 SW 24 35 13 19 1018.1 - 0.0
02/12:00pm 17.4 10.6 3.3 39 6.5 SW 28 41 15 22 1018.2 1018.0 0.0
02/11:37am 15.0 7.7 2.2 42 5.7 SW 30 48 16 26 1018.4 - 0.0
02/11:30am 15.9 8.7 3.0 42 5.9 SW 30 43 16 23 1018.4 - 0.0
02/11:07am 16.2 9.2 3.9 44 5.7 SW 30 48 16 26 1018.4 - 0.0
02/11:00am 15.7 8.3 3.8 45 5.5 SW 32 48 17 26 1018.5 1018.3 0.0
02/10:30am 16.2 9.3 4.6 46 5.5 SW 30 44 16 24 1018.7 - 0.0
02/10:00am 15.1 8.8 5.9 54 4.4 SW 28 46 15 25 1018.7 1018.5 0.0
02/09:56am 14.5 8.2 5.6 55 4.2 SW 28 46 15 25 1018.6 - 0.0
02/09:30am 14.6 8.6 6.9 60 3.8 SSW 28 39 15 21 1018.5 - 0.0
02/09:00am 14.0 9.0 8.0 67 3.0 SW 24 37 13 20 1018.2 1018.0 0.2
02/08:30am 12.8 8.7 8.5 75 2.2 SW 20 30 11 16 1018.0 - 0.2
02/08:00am 11.8 6.8 8.1 78 1.8 SW 24 33 13 18 1017.5 1017.3 0.2
02/07:30am 11.6 7.7 8.6 82 1.5 SW 19 28 10 15 1017.0 - 0.2
02/07:00am 10.8 6.6 8.2 84 1.3 SW 20 33 11 18 1016.6 1016.4 0.2
02/06:30am 10.6 7.0 8.4 86 1.1 WSW 17 32 9 17 1016.0 - 0.2
02/06:00am 11.2 7.1 8.8 85 1.2 SW 20 30 11 16 1015.5 1015.3 0.2
02/05:30am 11.4 6.6 8.8 84 1.3 SW 24 32 13 17 1014.8 - 0.2
02/05:00am 12.1 5.7 9.3 83 1.4 SW 33 50 18 27 1014.3 1014.1 0.2
02/04:48am 12.2 6.8 9.6 84 1.3 SW 28 50 15 27 1013.9 - 0.2
02/04:30am 12.2 8.6 9.8 85 1.2 WSW 19 30 10 16 1013.4 - 0.2
02/04:00am 13.2 10.8 10.2 82 1.6 WNW 13 20 7 11 1013.0 1012.8 0.2
02/03:30am 14.0 11.3 10.4 79 1.9 W 15 24 8 13 1012.6 - 0.2
02/03:00am 13.8 11.1 10.4 80 1.8 W 15 24 8 13 1012.6 1012.4 0.2
02/02:30am 15.6 11.5 8.6 63 3.6 SW 20 39 11 21 1013.8 - 0.0
02/02:00am 16.5 12.1 7.4 55 4.6 SSW 20 26 11 14 1013.9 1013.7 0.0
02/01:30am 17.0 11.1 7.4 53 4.8 SW 28 41 15 22 1014.6 - 0.0
02/01:04am 17.4 11.4 6.9 50 5.2 SSW 28 48 15 26 1014.8 - 0.0
02/01:00am 17.3 11.6 6.8 50 5.2 SSW 26 35 14 19 1014.7 1014.5 0.0
02/12:30am 17.7 10.1 5.9 46 5.8 SSW 35 46 19 25 1014.1 - 0.0
02/12:00am 17.6 11.5 0.7 32 7.5 SSW 22 32 12 17 1013.8 1013.6 0.0
 
Date/Time
EST
Temp
°C
App
Temp
°C
Dew
Point
Rel
Hum
%
Delta-T
°C
Wind Press
QNH
hPa
Press
MSL
hPa
Rain
since 9 am
mm
Dir
 
Spd
km/h
Gust
km/h
Spd
kts
Gust
kts
01/11:30pm 18.1 11.1 -0.2 29 8.0 SW 26 37 14 20 1013.1 - 0.0
01/11:00pm 16.5 10.4 0.2 33 7.0 WSW 22 39 12 21 1012.6 1012.4 0.0
01/10:57pm 14.4 7.2 1.0 40 5.8 WSW 28 39 15 21 1012.6 - 0.0
01/10:30pm 12.1 8.5 0.8 46 4.8 NNE 9 11 5 6 1011.8 - 0.0
01/10:00pm 13.8 10.2 0.8 41 5.6 NNE 9 11 5 6 1012.1 1011.9 0.0
01/09:30pm 13.9 10.4 1.2 42 5.5 NNE 9 11 5 6 1012.2 - 0.0
01/09:00pm 14.2 11.0 0.8 40 5.7 NE 7 9 4 5 1012.4 1012.2 0.0
01/08:30pm 14.1 10.6 1.4 42 5.5 NE 9 9 5 5 1012.6 - 0.0
01/08:00pm 14.9 12.3 0.7 38 6.1 NNE 4 9 2 5 1012.8 1012.6 0.0
01/07:30pm 15.8 13.9 0.4 35 6.6 CALM 0 0 0 0 1012.9 - 0.0
01/07:00pm 16.2 13.1 0.3 34 6.9 N 6 7 3 4 1012.6 1012.4 0.0
01/06:30pm 17.5 14.3 -0.7 29 7.8 N 6 7 3 4 1012.6 - 0.0
01/06:00pm 21.7 18.0 -2.9 19 10.5 WNW 7 11 4 6 1012.6 1012.4 0.0
01/05:30pm 23.3 19.3 -2.3 18 11.2 NW 9 13 5 7 1012.5 - 0.0
01/05:00pm 24.3 19.7 -4.0 15 12.1 NW 11 17 6 9 1012.4 1012.2 0.0
01/04:30pm 24.8 19.6 -2.7 16 12.1 NW 15 22 8 12 1012.4 - 0.0
01/04:00pm 25.0 19.0 -3.4 15 12.3 NW 19 26 10 14 1012.5 1012.3 0.0
01/03:30pm 25.1 18.9 -3.3 15 12.4 NW 20 26 11 14 1012.6 - 0.0
01/03:00pm 25.3 19.7 -3.2 15 12.4 W 17 24 9 13 1013.2 1013.0 0.0
01/02:30pm 25.1 19.5 -3.3 15 12.4 NW 17 28 9 15 1013.4 - 0.0
01/02:00pm 24.9 19.2 -3.5 15 12.3 WNW 17 26 9 14 1013.5 1013.3 0.0
01/01:30pm 25.2 19.0 -3.2 15 12.4 WNW 20 30 11 16 1014.1 - 0.0
01/01:00pm 25.8 20.4 -1.1 17 12.3 NNW 17 28 9 15 1014.8 1014.6 0.0
01/12:30pm 25.0 19.3 -0.9 18 11.8 WNW 19 35 10 19 1015.0 - 0.0
01/12:00pm 25.2 20.0 0.0 19 11.7 NNW 17 33 9 18 1015.6 1015.4 0.0
01/11:30am 24.9 19.2 -1.0 18 11.7 NW 19 28 10 15 1016.1 - 0.0
01/11:00am 24.0 18.3 -1.0 19 11.2 N 19 26 10 14 1016.5 1016.3 0.0
01/10:30am 23.0 17.3 0.8 23 10.3 N 20 28 11 15 1016.8 - 0.0
01/10:00am 22.9 17.3 1.3 24 10.1 N 20 24 11 13 1016.9 1016.7 0.0
01/09:30am 20.9 15.3 1.2 27 9.0 NNW 20 28 11 15 1017.3 - 0.0
01/09:00am 19.9 15.4 2.3 31 8.2 N 15 20 8 11 1017.7 1017.7 0.0
01/08:30am 17.2 13.2 3.1 39 6.5 N 13 17 7 9 1017.4 - 0.0
01/08:00am 14.2 11.3 4.5 52 4.5 NNE 9 15 5 8 1017.2 1017.2 0.0
01/07:30am 10.6 8.1 4.5 66 2.8 NNE 7 9 4 5 1017.0 - 0.0
01/07:00am 7.0 3.8 3.1 76 1.6 NNE 9 11 5 6 1016.9 1016.9 0.0
01/06:30am 6.4 2.7 2.3 75 1.7 NE 11 13 6 7 1016.8 - 0.0
01/06:00am 6.7 3.4 2.4 74 1.8 NNE 9 11 5 6 1016.9 1016.9 0.0
01/05:30am 7.2 4.0 2.9 74 1.8 NNE 9 11 5 6 1016.7 - 0.0
01/05:00am 6.9 2.9 2.8 75 1.7 NE 13 13 7 7 1016.4 1016.4 0.0
01/04:30am 7.1 3.5 2.8 74 1.8 NE 11 13 6 7 1016.4 - 0.0
01/04:00am 7.1 3.9 2.8 74 1.8 NE 9 11 5 6 1016.2 1016.2 0.0
01/03:30am 8.3 5.1 3.0 69 2.3 NE 9 11 5 6 1016.2 - 0.0
01/03:00am 8.3 4.8 3.4 71 2.1 NE 11 11 6 6 1016.2 1016.2 0.0
01/02:30am 8.5 5.4 3.4 70 2.2 NE 9 9 5 5 1016.1 - 0.0
01/02:00am 9.4 6.7 3.8 68 2.5 NNE 7 9 4 5 1016.5 1016.5 0.0
01/01:30am 10.7 8.2 3.7 62 3.1 NNE 6 7 3 4 1016.8 - 0.0
01/01:00am 11.0 8.1 4.5 64 2.9 NE 9 15 5 8 1016.8 1016.8 0.0
01/12:30am 10.7 7.5 5.0 68 2.6 E 11 13 6 7 1016.9 - 0.0
01/12:00am 9.7 7.1 4.3 69 2.4 ENE 7 13 4 7 1016.9 1016.9 0.0
 
Date/Time
EST
Temp
°C
App
Temp
°C
Dew
Point
Rel
Hum
%
Delta-T
°C
Wind Press
QNH
hPa
Press
MSL
hPa
Rain
since 9 am
mm
Dir
 
Spd
km/h
Gust
km/h
Spd
kts
Gust
kts
31/11:30pm 9.7 8.5 4.5 70 2.3 CALM 0 0 0 0 1017.1 - 0.0
31/11:00pm 10.1 8.7 3.8 65 2.8 CALM 0 0 0 0 1017.4 1017.4 0.0
31/10:30pm 10.0 7.4 4.2 67 2.6 N 7 7 4 4 1017.6 - 0.0
31/10:00pm 10.3 7.7 4.2 66 2.7 NNE 7 7 4 4 1017.8 1017.8 0.0
31/09:30pm 11.2 8.8 4.2 62 3.2 N 6 6 3 3 1017.9 - 0.0
31/09:00pm 10.9 8.5 4.1 63 3.0 ENE 6 13 3 7 1017.9 1017.9 0.0
31/08:30pm 11.5 10.1 3.8 59 3.4 CALM 0 0 0 0 1017.7 - 0.0
31/08:00pm 12.5 11.2 4.0 56 3.8 CALM 0 0 0 0 1017.9 1017.9 0.0
31/07:30pm 14.0 12.5 3.2 48 4.9 CALM 0 0 0 0 1017.7 - 0.0
31/07:00pm 15.2 13.7 3.0 44 5.5 CALM 0 0 0 0 1017.4 1017.4 0.0
31/06:30pm 16.9 14.2 2.5 38 6.6 SE 6 6 3 3 1017.1 - 0.0
31/06:00pm 20.1 18.3 1.5 29 8.5 CALM 0 0 0 0 1016.8 1016.8 0.0
31/05:30pm 22.4 19.4 0.9 24 9.9 SW 6 7 3 4 1016.5 - 0.0
31/05:00pm 22.8 19.9 1.2 24 10.0 SSW 6 9 3 5 1016.5 1016.5 0.0
31/04:30pm 23.4 20.9 1.7 24 10.2 SSW 4 11 2 6 1016.6 - 0.0
31/04:00pm 23.5 19.9 2.9 26 9.9 SSW 11 15 6 8 1016.5 1016.5 0.0
31/03:30pm 23.3 20.0 2.7 26 9.9 SSE 9 15 5 8 1016.8 - 0.0
31/03:00pm 23.1 19.8 2.6 26 9.8 SSW 9 15 5 8 1016.9 1016.9 0.0
31/02:30pm 23.1 19.5 3.1 27 9.7 ESE 11 19 6 10 1017.3 - 0.0
31/02:00pm 23.6 21.2 4.5 29 9.5 E 6 9 3 5 1017.6 1017.6 0.0
31/01:30pm 22.2 18.4 1.8 26 9.6 S 11 17 6 9 1018.2 - 0.0
31/01:00pm 22.2 19.1 3.8 30 8.9 S 9 20 5 11 1018.9 1018.9 0.0
31/12:30pm 21.4 17.5 3.6 31 8.6 SE 13 20 7 11 1019.5 - 0.0
31/12:00pm 21.1 18.2 4.6 34 8.1 ESE 9 13 5 7 1020.0 1020.0 0.0
31/11:30am 20.9 18.8 5.7 37 7.6 W 6 11 3 6 1020.5 - 0.0
31/11:00am 19.9 17.3 6.3 41 6.8 N 9 15 5 8 1021.1 1021.1 0.0
31/10:30am 19.4 17.0 6.8 44 6.4 NE 9 15 5 8 1021.4 - 0.0
31/10:00am 18.3 15.5 6.8 47 5.8 NE 11 17 6 9 1021.5 1021.5 0.0
31/09:30am 17.7 15.1 6.3 47 5.6 ENE 9 15 5 8 1021.6 - 0.0
31/09:00am 16.1 13.7 4.5 46 5.4 SE 6 7 3 4 1021.7 1021.7 0.0
31/08:30am 14.2 12.4 3.4 48 4.9 SE 2 6 1 3 1021.7 - 0.0
31/08:00am 11.3 10.1 4.5 63 3.1 CALM 0 0 0 0 1021.6 1021.6 0.0
31/07:30am 8.2 6.9 4.2 76 1.8 CALM 0 2 0 1 1021.5 - 0.0
31/07:00am 5.1 2.5 3.3 88 0.7 S 6 7 3 4 1021.2 1021.2 0.0
31/06:30am 3.9 1.5 2.1 88 0.7 SE 4 9 2 5 1021.0 - 0.0
31/06:00am 4.4 2.7 2.1 85 0.9 CALM 0 0 0 0 1020.6 1020.6 0.0
31/05:30am 4.8 3.2 2.3 84 1.0 CALM 0 7 0 4 1020.3 - 0.0
31/05:00am 4.8 3.1 1.8 81 1.2 CALM 0 0 0 0 1020.1 1020.1 0.0
31/04:30am 5.1 3.4 1.9 80 1.3 CALM 0 0 0 0 1020.0 - 0.0
31/04:00am 4.6 2.9 1.8 82 1.1 CALM 0 0 0 0 1020.0 1020.0 0.0
31/03:30am 5.0 3.3 1.8 80 1.3 CALM 0 0 0 0 1020.0 - 0.0
31/03:00am 5.3 3.6 2.0 79 1.3 CALM 0 0 0 0 1020.3 1020.3 0.0
31/02:30am 6.0 4.4 2.3 77 1.5 CALM 0 6 0 3 1020.6 - 0.0
31/02:00am 5.3 3.6 2.0 79 1.3 CALM 0 0 0 0 1020.8 1020.8 0.0
31/01:30am 6.2 4.1 1.7 73 1.8 W 2 7 1 4 1021.0 - 0.0
31/01:00am 7.4 5.8 2.3 70 2.1 CALM 0 0 0 0 1021.0 1021.0 0.0
31/12:30am 7.3 5.8 2.8 73 1.9 CALM 0 6 0 3 1021.0 - 0.0
31/12:00am 7.5 5.2 2.6 71 2.0 N 4 6 2 3 1021.1 1021.1 0.0

Other Formats:

Comma delimited format used in spreadsheet applications
http://www.bom.gov.au/fwo/IDN60801/IDN60801.94703.axf

JavaScript Object Notation format (JSON) in row-major order
http://www.bom.gov.au/fwo/IDN60801/IDN60801.94703.json